This is the latest recevied weather packets stored in our database for station/object SQ5AAG-2. If no packets are shown the sender has not sent any weather packets the latest 1 day(s).
| Time | Temp. | Humidity | Pressure | Rain* | Wind** | Luminosity | Snow |
|---|---|---|---|---|---|---|---|
| 1777965989 | 21.11° C | 51% | 995.3 hPa | 0 mm | 0 m/s | - | - |
| 1777965689 | 21.11° C | 51% | 995.2 hPa | 0 mm | 0 m/s | - | - |
| 1777965388 | 21.11° C | 51% | 995.1 hPa | 0 mm | 0 m/s | - | - |
| 1777965088 | 21.11° C | 51% | 995 hPa | 0 mm | 0 m/s | - | - |
| 1777964788 | 21.11° C | 51% | 995.2 hPa | 0 mm | 0 m/s | - | - |
| 1777964488 | 21.11° C | 52% | 995.3 hPa | 0 mm | 0 m/s | - | - |
| 1777964187 | 21.11° C | 52% | 995.5 hPa | 0 mm | 0 m/s | - | - |
| 1777963887 | 21.11° C | 52% | 995.5 hPa | 0 mm | 0 m/s | - | - |
| 1777963587 | 21.11° C | 52% | 995.5 hPa | 0 mm | 0 m/s | - | - |
| 1777963286 | 20.56° C | 52% | 995.6 hPa | 0 mm | 0 m/s | - | - |
| 1777962989 | 21.11° C | 52% | 995.5 hPa | 0 mm | 0 m/s | - | - |
| 1777962686 | 21.11° C | 50% | 995.5 hPa | 0 mm | 0 m/s | - | - |
| 1777962385 | 21.67° C | 50% | 995.6 hPa | 0 mm | 0 m/s | - | - |
| 1777962086 | 21.67° C | 48% | 995.4 hPa | 0 mm | 0 m/s | - | - |
| 1777961786 | 23.33° C | 47% | 995.5 hPa | 0 mm | 0 m/s | - | - |
| 1777961485 | 23.89° C | 46% | 995.5 hPa | 0 mm | 0 m/s | - | - |
| 1777961185 | 24.44° C | 47% | 995.6 hPa | 0 mm | 0 m/s | - | - |
| 1777960884 | 23.89° C | 50% | 995.7 hPa | 0 mm | 0 m/s | - | - |
| 1777960584 | 23.33° C | 51% | 995.6 hPa | 0 mm | 0 m/s | - | - |
| 1777960284 | 22.78° C | 52% | 995.6 hPa | 0 mm | 0 m/s | - | - |
| 1777959983 | 21.67° C | 53% | 995.4 hPa | 0 mm | 0 m/s | - | - |
| 1777959687 | 21.67° C | 54% | 995.6 hPa | 0 mm | 0 m/s | - | - |
| 1777959385 | 21.11° C | 56% | 995.6 hPa | 0 mm | 0 m/s | - | - |
| 1777959082 | 20.56° C | 57% | 995.8 hPa | 0 mm | 0 m/s | - | - |
| 1777958782 | 20° C | 58% | 995.7 hPa | 0 mm | 0 m/s | - | - |
* Rain latest hour (hover to see other rain measurements)
** Current wind speed in m/s (hover to see current wind gust speed)